createdAt,value
2022-08-14T00:02:18.664Z,7.32
2022-08-14T00:04:47.725Z,6.93
2022-08-14T00:07:16.756Z,7.50
2022-08-14T00:12:39.240Z,7.13
2022-08-14T00:15:15.165Z,7.50
2022-08-14T00:17:48.197Z,8.00
2022-08-14T00:20:30.621Z,7.80
2022-08-14T00:23:08.548Z,8.05
2022-08-14T00:25:42.847Z,8.75
2022-08-14T00:28:15.433Z,9.05
2022-08-14T00:30:48.437Z,9.00
2022-08-14T00:33:17.055Z,9.65
2022-08-14T00:36:37.229Z,9.55
2022-08-14T00:38:35.569Z,9.75
2022-08-14T00:43:33.938Z,8.75
2022-08-14T00:46:08.161Z,10.23
2022-08-14T00:48:38.625Z,9.45
2022-08-14T00:51:12.052Z,10.27
2022-08-14T00:53:42.918Z,9.52
2022-08-14T00:56:15.473Z,9.30
2022-08-14T00:58:45.218Z,9.75
2022-08-14T01:01:18.302Z,9.65
2022-08-14T01:03:49.737Z,9.25
2022-08-14T01:06:21.689Z,9.90
2022-08-14T01:08:58.257Z,9.60
2022-08-14T01:11:35.633Z,9.32
2022-08-14T01:14:25.163Z,9.25
2022-08-14T01:16:56.303Z,9.75
2022-08-14T01:19:43.481Z,9.70
2022-08-14T01:22:18.776Z,9.13
2022-08-14T01:24:48.520Z,9.23
2022-08-14T01:27:22.236Z,9.25
2022-08-14T01:30:01.027Z,8.82
2022-08-14T01:32:45.329Z,8.32
2022-08-14T01:36:05.287Z,8.70
2022-08-14T01:38:11.355Z,7.93
2022-08-14T01:40:41.603Z,8.63
2022-08-14T01:43:18.757Z,8.80
2022-08-14T01:45:57.634Z,8.23
2022-08-14T01:48:37.314Z,8.35
2022-08-14T01:51:18.698Z,8.68
2022-08-14T01:53:55.552Z,8.20
2022-08-14T01:56:37.211Z,8.15
2022-08-14T01:59:09.698Z,8.57
2022-08-14T02:01:42.021Z,8.05
2022-08-14T02:04:54.534Z,8.02
2022-08-14T02:07:15.606Z,7.88
2022-08-14T02:09:55.864Z,8.20
2022-08-14T02:12:26.504Z,7.82
2022-08-14T02:15:00.341Z,8.48
2022-08-14T02:17:34.687Z,8.40
2022-08-14T02:20:03.380Z,8.52
2022-08-14T02:22:33.971Z,8.10
2022-08-14T02:25:04.139Z,7.90
2022-08-14T02:28:23.886Z,8.00
2022-08-14T02:30:21.333Z,7.38
2022-08-14T02:32:50.939Z,7.90
2022-08-14T02:35:22.004Z,7.60
2022-08-14T02:37:55.043Z,7.60
2022-08-14T02:40:32.169Z,8.73
2022-08-14T02:43:03.360Z,8.57
2022-08-14T02:45:38.659Z,7.88
2022-08-14T02:49:01.650Z,9.05
2022-08-14T02:51:02.830Z,8.85
2022-08-14T02:53:31.559Z,8.45
2022-08-14T02:56:29.518Z,9.38
2022-08-14T02:58:55.563Z,9.40
2022-08-14T03:01:26.207Z,10.15
2022-08-14T03:04:00.358Z,9.88
2022-08-14T03:06:35.051Z,10.07
2022-08-14T03:11:47.857Z,10.82
2022-08-14T03:14:17.988Z,11.85
2022-08-14T03:16:50.994Z,11.82
2022-08-14T03:19:19.863Z,11.32
2022-08-14T03:21:52.776Z,11.13
2022-08-14T03:24:23.153Z,11.43
2022-08-14T03:26:57.754Z,12.82
2022-08-14T03:29:27.796Z,12.30
2022-08-14T03:31:59.562Z,13.10
2022-08-14T03:34:47.962Z,11.82
2022-08-14T03:40:07.328Z,11.38
2022-08-14T03:42:41.419Z,12.00
2022-08-14T03:45:19.412Z,12.65
2022-08-14T03:48:01.910Z,11.63
2022-08-14T03:50:32.549Z,12.05
2022-08-14T03:53:02.261Z,12.35
2022-08-14T03:55:31.376Z,11.95
2022-08-14T03:58:01.908Z,10.52
2022-08-14T04:00:43.737Z,11.57
2022-08-14T04:03:23.639Z,11.40
2022-08-14T04:05:53.112Z,10.95
2022-08-14T04:11:01.081Z,10.82
2022-08-14T04:13:34.412Z,11.38
2022-08-14T04:16:05.139Z,11.07
2022-08-14T04:18:35.599Z,11.38
2022-08-14T04:23:34.689Z,10.80
2022-08-14T04:29:02.128Z,10.82
2022-08-14T04:33:01.778Z,9.77
2022-08-14T04:34:24.089Z,10.48
2022-08-14T04:37:22.062Z,10.93
2022-08-14T04:40:11.913Z,10.45
2022-08-14T04:42:58.589Z,10.93
2022-08-14T04:45:36.482Z,10.23
2022-08-14T04:48:39.267Z,9.93
2022-08-14T04:51:07.013Z,10.55
2022-08-14T04:53:43.239Z,9.95
2022-08-14T04:56:31.286Z,9.73
2022-08-14T04:59:09.450Z,9.90
2022-08-14T05:01:47.838Z,10.20
2022-08-14T05:04:20.012Z,10.43
2022-08-14T05:06:53.319Z,10.38
2022-08-14T05:09:23.403Z,10.25
2022-08-14T05:11:53.157Z,10.10
2022-08-14T05:14:46.159Z,9.70
2022-08-14T05:17:13.763Z,10.27
2022-08-14T05:19:44.984Z,10.73
2022-08-14T05:22:31.541Z,10.15
2022-08-14T05:25:01.412Z,9.55
2022-08-14T05:27:30.983Z,9.73
2022-08-14T05:30:00.616Z,9.90
2022-08-14T05:32:30.803Z,10.48
2022-08-14T05:35:00.553Z,10.25
2022-08-14T05:37:31.061Z,9.88
2022-08-14T05:40:02.567Z,10.35
2022-08-14T05:42:34.233Z,10.55
2022-08-14T05:45:05.257Z,10.10
2022-08-14T05:47:43.048Z,10.80
2022-08-14T05:50:18.588Z,9.82
2022-08-14T05:52:50.572Z,10.20
2022-08-14T05:55:22.119Z,10.30
2022-08-14T05:57:54.017Z,10.45
2022-08-14T06:00:29.377Z,10.00
2022-08-14T06:03:04.178Z,10.13
2022-08-14T06:05:38.901Z,10.23
2022-08-14T06:08:31.238Z,9.80
2022-08-14T06:11:06.694Z,10.15
2022-08-14T06:13:44.410Z,9.57
2022-08-14T06:16:17.729Z,9.90
2022-08-14T06:18:51.701Z,9.82
2022-08-14T06:21:20.571Z,9.98
2022-08-14T06:23:50.502Z,9.43
2022-08-14T06:26:22.169Z,9.60
2022-08-14T06:28:52.387Z,9.35
2022-08-14T06:31:22.984Z,9.80
2022-08-14T06:35:09.583Z,10.55
2022-08-14T06:36:42.250Z,10.48
2022-08-14T06:39:11.063Z,10.35
2022-08-14T06:44:32.482Z,10.23
2022-08-14T06:47:03.127Z,11.13
2022-08-14T06:49:43.336Z,10.77
2022-08-14T06:52:16.492Z,9.93
2022-08-14T06:54:45.959Z,10.25
2022-08-14T06:57:14.545Z,10.65
2022-08-14T06:59:43.360Z,9.95
2022-08-14T07:02:29.769Z,10.40
2022-08-14T07:05:21.067Z,10.40
2022-08-14T07:07:51.575Z,9.98
2022-08-14T07:10:24.746Z,11.30
2022-08-14T07:13:01.844Z,9.98
2022-08-14T07:15:39.924Z,10.52
2022-08-14T07:18:12.334Z,10.63
2022-08-14T07:20:44.522Z,10.15
2022-08-14T07:23:20.965Z,10.82
2022-08-14T07:25:51.438Z,10.45
2022-08-14T07:28:23.684Z,10.55
2022-08-14T07:30:56.444Z,11.57
2022-08-14T07:33:29.466Z,10.32
2022-08-14T07:36:02.150Z,10.85
2022-08-14T07:38:37.636Z,10.73
2022-08-14T07:41:14.643Z,9.90
2022-08-14T07:43:53.102Z,10.55
2022-08-14T07:46:28.299Z,11.23
2022-08-14T07:48:58.785Z,11.57
2022-08-14T07:51:36.676Z,10.55
2022-08-14T07:54:10.931Z,11.17
2022-08-14T07:56:47.934Z,11.77
2022-08-14T07:59:18.828Z,12.27
2022-08-14T08:01:51.830Z,12.93
2022-08-14T08:04:28.278Z,13.05
2022-08-14T08:06:58.357Z,14.68
2022-08-14T08:09:31.980Z,12.52
2022-08-14T08:12:04.733Z,12.68
2022-08-14T08:14:55.458Z,13.07
2022-08-14T08:17:24.845Z,13.63
2022-08-14T08:19:53.527Z,12.30
2022-08-14T08:22:23.926Z,10.85
2022-08-14T08:24:56.103Z,11.38
2022-08-14T08:27:26.738Z,11.88
2022-08-14T08:30:10.323Z,11.23
2022-08-14T08:32:42.542Z,10.80
2022-08-14T08:35:21.257Z,10.57
2022-08-14T08:38:01.544Z,11.82
2022-08-14T08:40:42.144Z,10.77
2022-08-14T08:43:20.777Z,10.50
2022-08-14T08:45:56.826Z,11.27
2022-08-14T08:48:31.500Z,10.35
2022-08-14T08:51:05.762Z,11.02
2022-08-14T08:53:38.472Z,10.43
2022-08-14T08:56:10.579Z,10.35
2022-08-14T08:58:58.804Z,9.88
2022-08-14T09:01:30.949Z,10.55
2022-08-14T09:04:04.451Z,10.05
2022-08-14T09:07:00.447Z,9.20
2022-08-14T09:09:54.403Z,8.90
2022-08-14T09:12:32.339Z,8.18
2022-08-14T09:15:03.514Z,8.77
2022-08-14T09:17:33.865Z,8.65
2022-08-14T09:20:11.707Z,8.45
2022-08-14T09:22:42.581Z,8.30
2022-08-14T09:25:59.815Z,8.45
2022-08-14T09:28:11.462Z,9.70
2022-08-14T09:30:44.444Z,9.63
2022-08-14T09:33:56.507Z,8.45
2022-08-14T09:37:08.585Z,8.63
2022-08-14T09:39:50.013Z,9.13
2022-08-14T09:42:45.213Z,8.25
2022-08-14T09:45:23.931Z,8.60
2022-08-14T09:47:55.048Z,8.35
2022-08-14T09:50:28.044Z,8.48
2022-08-14T09:52:59.917Z,8.48
2022-08-14T09:55:41.374Z,8.57
2022-08-14T09:58:19.441Z,8.35
2022-08-14T10:00:51.072Z,8.02
2022-08-14T10:03:33.067Z,7.82
2022-08-14T10:06:07.499Z,7.15
2022-08-14T10:08:51.201Z,8.30
2022-08-14T10:11:23.870Z,8.05
2022-08-14T10:13:56.940Z,8.50
2022-08-14T10:16:32.897Z,7.97
2022-08-14T10:19:09.360Z,8.48
2022-08-14T10:21:58.414Z,8.98
2022-08-14T10:24:37.135Z,8.57
2022-08-14T10:27:16.471Z,8.52
2022-08-14T10:32:36.387Z,7.97
2022-08-14T10:37:48.604Z,7.80
2022-08-14T10:40:38.573Z,7.55
2022-08-14T10:43:23.389Z,7.38
2022-08-14T10:46:59.058Z,8.40
2022-08-14T10:49:04.503Z,7.82
2022-08-14T10:51:39.545Z,7.45
2022-08-14T10:54:35.254Z,7.63
2022-08-14T10:57:18.709Z,6.90
2022-08-14T10:59:51.143Z,7.15
2022-08-14T11:02:45.044Z,7.95
2022-08-14T11:05:19.812Z,7.03
2022-08-14T11:08:00.372Z,6.95
2022-08-14T11:10:42.988Z,7.40
2022-08-14T11:13:16.729Z,7.07
2022-08-14T11:15:46.804Z,6.90
2022-08-14T11:18:20.545Z,7.22
2022-08-14T11:21:00.641Z,7.35
2022-08-14T11:23:38.131Z,6.97
2022-08-14T11:26:10.413Z,7.55
2022-08-14T11:28:46.776Z,7.50
2022-08-14T11:31:20.571Z,6.70
2022-08-14T11:33:58.109Z,6.88
2022-08-14T11:37:02.920Z,7.15
2022-08-14T11:39:33.421Z,7.22
2022-08-14T11:42:56.114Z,7.07
2022-08-14T11:44:56.716Z,7.72
2022-08-14T11:47:35.219Z,6.63
2022-08-14T11:50:33.605Z,7.75
2022-08-14T11:53:07.667Z,10.63
2022-08-14T11:55:39.583Z,10.77
2022-08-14T11:58:10.323Z,11.45
2022-08-14T12:00:50.157Z,10.95
2022-08-14T12:03:37.633Z,9.68
2022-08-14T12:06:29.064Z,8.85
2022-08-14T12:09:02.774Z,9.23
2022-08-14T12:11:43.096Z,8.85
2022-08-14T12:14:30.758Z,7.72
2022-08-14T12:17:11.751Z,7.05
2022-08-14T12:20:03.271Z,8.60
2022-08-14T12:22:40.102Z,7.32
2022-08-14T12:25:13.735Z,7.70
2022-08-14T12:27:52.405Z,8.25
2022-08-14T12:30:42.475Z,7.57
2022-08-14T12:33:30.487Z,7.72
2022-08-14T12:36:05.526Z,6.97
2022-08-14T12:38:38.795Z,7.28
2022-08-14T12:41:16.214Z,7.25
2022-08-14T12:43:51.827Z,7.22
2022-08-14T12:46:29.254Z,8.00
2022-08-14T12:49:02.299Z,7.40
2022-08-14T12:51:31.705Z,7.70
2022-08-14T12:54:01.953Z,7.22
2022-08-14T12:56:33.664Z,7.30
2022-08-14T12:59:04.927Z,7.38
2022-08-14T13:01:59.715Z,7.60
2022-08-14T13:04:24.724Z,7.45
2022-08-14T13:09:35.832Z,8.60
2022-08-14T13:12:35.003Z,7.65
2022-08-14T13:14:59.947Z,8.65
2022-08-14T13:17:29.644Z,7.15
2022-08-14T13:20:10.173Z,7.97
2022-08-14T13:22:42.654Z,8.32
2022-08-14T13:25:20.193Z,7.90
2022-08-14T13:27:54.575Z,6.93
2022-08-14T13:30:25.025Z,7.70
2022-08-14T13:32:57.957Z,7.40
2022-08-14T13:35:27.857Z,7.10
2022-08-14T13:37:58.700Z,6.72
2022-08-14T13:40:30.258Z,6.95
2022-08-14T13:42:58.966Z,7.32
2022-08-14T13:45:59.571Z,7.95
2022-08-14T13:48:19.158Z,7.78
2022-08-14T13:51:02.082Z,8.15
2022-08-14T13:53:38.245Z,8.50
2022-08-14T13:56:26.462Z,8.23
2022-08-14T13:59:04.823Z,8.88
2022-08-14T14:01:42.668Z,8.05
2022-08-14T14:04:19.166Z,7.80
2022-08-14T14:06:51.262Z,7.97
2022-08-14T14:09:27.044Z,8.00
2022-08-14T14:12:04.152Z,7.10
2022-08-14T14:14:51.073Z,7.25
2022-08-14T14:17:24.626Z,7.32
2022-08-14T14:19:53.759Z,7.72
2022-08-14T14:23:01.902Z,7.45
2022-08-14T14:25:11.413Z,7.38
2022-08-14T14:27:42.345Z,8.45
2022-08-14T14:30:24.558Z,7.15
2022-08-14T14:33:05.157Z,7.38
2022-08-14T14:35:40.233Z,7.45
2022-08-14T14:38:14.590Z,7.13
2022-08-14T14:40:52.182Z,7.45
2022-08-14T14:43:27.501Z,7.60
2022-08-14T14:45:57.033Z,6.90
2022-08-14T14:48:29.690Z,7.03
2022-08-14T14:51:01.612Z,7.05
2022-08-14T14:53:39.186Z,7.13
2022-08-14T14:56:47.757Z,8.07
2022-08-14T14:59:01.063Z,7.68
2022-08-14T15:01:29.850Z,7.13
2022-08-14T15:04:00.183Z,7.80
2022-08-14T15:06:33.679Z,8.05
2022-08-14T15:09:04.707Z,9.07
2022-08-14T15:11:33.740Z,9.60
2022-08-14T15:14:54.995Z,10.00
2022-08-14T15:16:55.388Z,10.55
2022-08-14T15:19:27.859Z,11.13
2022-08-14T15:21:58.487Z,9.77
2022-08-14T15:24:27.311Z,9.80
2022-08-14T15:26:58.698Z,9.35
2022-08-14T15:29:28.807Z,9.07
2022-08-14T15:31:59.883Z,8.73
2022-08-14T15:34:44.287Z,8.93
2022-08-14T15:37:16.573Z,8.90
2022-08-14T15:39:46.032Z,8.55
2022-08-14T15:42:16.574Z,8.90
2022-08-14T15:44:58.076Z,9.13
2022-08-14T15:47:51.648Z,8.75
2022-08-14T15:50:20.562Z,8.50
2022-08-14T15:52:52.068Z,8.95
2022-08-14T15:55:23.096Z,9.45
2022-08-14T15:58:01.890Z,9.93
2022-08-14T16:00:52.881Z,8.80
2022-08-14T16:03:27.551Z,15.45
2022-08-14T16:06:05.684Z,12.95
2022-08-14T16:08:34.477Z,14.20
2022-08-14T16:11:05.629Z,12.40
2022-08-14T16:13:41.261Z,11.80
2022-08-14T16:16:48.089Z,10.77
2022-08-14T16:19:10.120Z,10.40
2022-08-14T16:22:02.486Z,9.15
2022-08-14T16:24:59.567Z,9.30
2022-08-14T16:27:38.821Z,9.02
2022-08-14T16:30:24.724Z,9.43
2022-08-14T16:33:01.132Z,13.18
2022-08-14T16:35:42.245Z,14.77
2022-08-14T16:38:45.853Z,15.93
2022-08-14T16:41:22.949Z,15.98
2022-08-14T16:43:58.994Z,16.98
2022-08-14T16:46:31.466Z,18.95
2022-08-14T16:49:03.150Z,19.17
2022-08-14T16:51:34.833Z,19.65
2022-08-14T16:54:20.845Z,23.30
2022-08-14T16:56:56.547Z,26.50
2022-08-14T16:59:30.585Z,25.45
2022-08-14T17:02:14.889Z,28.58
2022-08-14T17:04:49.389Z,30.67
2022-08-14T17:07:18.028Z,26.58
2022-08-14T17:09:48.726Z,23.67
2022-08-14T17:12:28.658Z,22.30
2022-08-14T17:15:10.607Z,24.13
2022-08-14T17:17:57.687Z,20.88
2022-08-14T17:20:39.975Z,18.10
2022-08-14T17:23:17.656Z,17.85
2022-08-14T17:28:52.218Z,16.60
2022-08-14T17:31:12.101Z,16.27
2022-08-14T17:33:44.558Z,14.50
2022-08-14T17:36:24.143Z,14.65
2022-08-14T17:42:01.837Z,13.43
2022-08-14T17:44:45.071Z,12.80
2022-08-14T17:47:18.515Z,12.30
2022-08-14T17:49:52.882Z,12.35
2022-08-14T17:52:34.713Z,11.88
2022-08-14T17:55:07.056Z,11.60
2022-08-14T17:57:41.103Z,12.13
2022-08-14T18:00:13.309Z,11.70
2022-08-14T18:02:50.408Z,12.75
2022-08-14T18:05:23.720Z,13.13
2022-08-14T18:08:33.335Z,14.07
2022-08-14T18:11:03.235Z,12.93
2022-08-14T18:13:50.892Z,12.68
2022-08-14T18:16:22.684Z,12.15
2022-08-14T18:18:52.361Z,11.65
2022-08-14T18:21:43.050Z,14.75
2022-08-14T18:24:20.295Z,13.10
2022-08-14T18:27:08.637Z,14.95
2022-08-14T18:29:45.102Z,18.30
2022-08-14T18:32:47.233Z,21.08
2022-08-14T18:35:46.308Z,32.95
2022-08-14T18:38:26.363Z,28.95
2022-08-14T18:41:36.276Z,18.38
2022-08-14T18:44:10.220Z,18.90
2022-08-14T18:47:15.122Z,20.25
2022-08-14T18:50:27.617Z,14.85
2022-08-14T18:52:54.820Z,14.50
2022-08-14T18:55:54.014Z,21.38
2022-08-14T18:58:34.049Z,14.65
2022-08-14T19:01:06.336Z,14.25
2022-08-14T19:03:57.365Z,13.30
2022-08-14T19:06:56.534Z,14.57
2022-08-14T19:10:00.783Z,13.13
2022-08-14T19:12:57.854Z,13.30
2022-08-14T19:15:29.688Z,10.65
2022-08-14T19:18:14.106Z,11.52
2022-08-14T19:20:52.894Z,11.40
2022-08-14T19:23:42.218Z,12.32
2022-08-14T19:26:35.904Z,10.93
2022-08-14T19:29:39.476Z,10.88
2022-08-14T19:32:40.844Z,10.18
2022-08-14T19:35:49.606Z,10.50
2022-08-14T19:38:52.212Z,11.02
2022-08-14T19:41:29.524Z,10.02
2022-08-14T19:44:10.103Z,9.10
2022-08-14T19:47:01.964Z,8.30
2022-08-14T19:50:25.026Z,9.85
2022-08-14T19:52:29.954Z,8.52
2022-08-14T19:54:59.535Z,7.55
2022-08-14T19:57:29.817Z,7.32
2022-08-14T20:00:04.565Z,7.35
2022-08-14T20:02:41.273Z,7.40
2022-08-14T20:05:12.429Z,7.57
2022-08-14T20:07:59.364Z,6.82
2022-08-14T20:11:07.735Z,6.80
2022-08-14T20:13:29.444Z,6.32
2022-08-14T20:16:12.150Z,5.93
2022-08-14T20:18:51.986Z,5.63
2022-08-14T20:21:23.918Z,5.00
2022-08-14T20:24:30.298Z,5.10
2022-08-14T20:27:21.085Z,5.30
2022-08-14T20:30:32.942Z,5.22
2022-08-14T20:33:01.803Z,5.25
2022-08-14T20:35:36.054Z,5.25
2022-08-14T20:38:29.081Z,4.80
2022-08-14T20:41:00.391Z,4.38
2022-08-14T20:43:53.213Z,4.85
2022-08-14T20:46:30.071Z,4.93
2022-08-14T20:49:01.348Z,4.88
2022-08-14T20:51:47.412Z,5.13
2022-08-14T20:54:33.864Z,4.45
2022-08-14T20:57:08.743Z,4.80
2022-08-14T20:59:43.312Z,4.70
2022-08-14T21:02:29.443Z,5.35
2022-08-14T21:05:03.668Z,4.38
2022-08-14T21:07:36.602Z,4.78
2022-08-14T21:10:33.349Z,4.63
2022-08-14T21:14:09.307Z,4.68
2022-08-14T21:15:58.626Z,4.32
2022-08-14T21:18:31.656Z,4.45
2022-08-14T21:21:06.956Z,4.93
2022-08-14T21:23:54.962Z,5.13
2022-08-14T21:26:33.274Z,4.57
2022-08-14T21:29:14.677Z,5.03
2022-08-14T21:31:55.250Z,4.40
2022-08-14T21:34:31.747Z,4.38
2022-08-14T21:37:09.833Z,4.35
2022-08-14T21:39:39.691Z,4.47
2022-08-14T21:42:10.962Z,4.50
2022-08-14T21:44:43.484Z,4.60
2022-08-14T21:47:16.590Z,4.60
2022-08-14T21:49:48.272Z,4.57
2022-08-14T21:52:52.257Z,5.40
2022-08-14T21:55:14.549Z,4.65
2022-08-14T21:58:44.813Z,4.18
2022-08-14T22:03:13.948Z,4.10
2022-08-14T22:05:45.948Z,4.20
2022-08-14T22:08:15.070Z,4.90
2022-08-14T22:10:47.654Z,4.47
2022-08-14T22:13:24.733Z,4.05
2022-08-14T22:15:59.774Z,4.68
2022-08-14T22:18:31.106Z,4.55
2022-08-14T22:21:05.796Z,4.85
2022-08-14T22:23:36.926Z,4.45
2022-08-14T22:26:07.636Z,4.53
2022-08-14T22:28:37.821Z,4.70
2022-08-14T22:31:18.355Z,4.50
2022-08-14T22:33:59.379Z,5.82
2022-08-14T22:36:48.745Z,4.90
2022-08-14T22:41:56.084Z,6.20
2022-08-14T22:46:57.852Z,5.10
2022-08-14T22:52:32.074Z,5.15
2022-08-14T22:55:05.812Z,5.45
2022-08-14T22:57:38.223Z,6.93
2022-08-14T23:00:15.060Z,5.05
2022-08-14T23:02:46.886Z,5.68
2022-08-14T23:05:15.890Z,5.78
2022-08-14T23:10:35.054Z,5.50
2022-08-14T23:13:07.518Z,5.35
2022-08-14T23:15:37.517Z,5.00
2022-08-14T23:18:07.559Z,6.18
2022-08-14T23:20:42.593Z,5.55
2022-08-14T23:23:22.972Z,6.05
2022-08-14T23:26:00.186Z,6.32
2022-08-14T23:28:58.104Z,6.35
2022-08-14T23:31:35.599Z,5.55
2022-08-14T23:34:07.671Z,5.97
2022-08-14T23:36:53.242Z,5.80
2022-08-14T23:39:30.263Z,5.70
2022-08-14T23:42:04.208Z,6.15
2022-08-14T23:44:35.667Z,5.57
2022-08-14T23:47:10.901Z,5.85
2022-08-14T23:49:57.040Z,6.55
2022-08-14T23:52:55.632Z,6.18
2022-08-14T23:55:28.458Z,5.70
2022-08-14T23:57:59.266Z,6.03
